Terminal Aerodrome Forecast
Issued by NWS

Home | Current Version | Previous Version | Text Only | Print | Product List | Glossary On
Versions: 1 2 3 4 5 6 7 8 9 10 11 12 13 14
000
FTUS42 KTBW 241700
TAFLAL
TAF
KLAL 241740Z 2418/2518 00000KT P6SM VCTS BKN035CB
     FM242100 29006KT P6SM VCTS BKN035CB
     FM250000 VRB03KT P6SM FEW035 SCT250
     FM251600 22007KT P6SM VCTS SCT035CB BKN250=

USA.gov is the U.S. government's official web portal to all federal, state and local government web resources and services.